Time;durP1;ratioP1;P1;durP2;ratioP2;P2;SDS_P1;SDS_P2;PMS_P1;PMS_P2;Temp;Humidity;BMP_temperature;BMP_pressure;BME280_temperature;BME280_humidity;BME280_pressure;Samples;Min_cycle;Max_cycle;Signal;HPM_P1;HPM_P2
2021/03/27 00:01:49;;;;;;;8.30;7.47;;;11.80;94.90;;;;;;4811101;29;20783;-82
2021/03/27 00:04:21;;;;;;;6.90;6.30;;;11.60;96.40;;;;;;4811641;29;20498;-82
2021/03/27 00:06:52;;;;;;;7.17;6.57;;;11.60;97.60;;;;;;4811437;29;20518;-82
2021/03/27 00:09:34;;;;;;;7.93;7.13;;;11.50;98.90;;;;;;4812110;29;20475;-80
2021/03/27 00:12:05;;;;;;;6.77;6.13;;;11.50;99.90;;;;;;4811621;29;20477;-82
2021/03/27 00:14:40;;;;;;;5.93;5.43;;;11.50;99.70;;;;;;4811936;29;20978;-82
2021/03/27 00:17:10;;;;;;;8.40;7.60;;;11.50;99.90;;;;;;4811083;29;20474;-81
2021/03/27 00:19:47;;;;;;;8.70;6.90;;;11.40;99.90;;;;;;4811555;29;20467;-82
2021/03/27 00:22:21;;;;;;;7.23;6.53;;;11.30;99.90;;;;;;4811686;29;20991;-81
2021/03/27 00:25:07;;;;;;;6.60;5.97;;;11.40;99.90;;;;;;4812198;29;20462;-82
2021/03/27 00:27:40;;;;;;;8.00;6.33;;;11.40;99.90;;;;;;4812018;29;20482;-81
2021/03/27 00:30:11;;;;;;;10.27;5.70;;;11.40;99.90;;;;;;4811442;29;20545;-82
2021/03/27 00:32:42;;;;;;;9.03;6.67;;;11.30;99.90;;;;;;4813433;29;20470;-81
2021/03/27 00:35:14;;;;;;;6.23;5.83;;;11.30;99.90;;;;;;4815451;29;20515;-81
2021/03/27 00:37:41;;;;;;;6.47;5.87;;;11.30;99.90;;;;;;4815843;29;20486;-82
2021/03/27 00:40:13;;;;;;;5.57;5.10;;;11.20;99.90;;;;;;4814709;29;20498;-81
2021/03/27 00:42:43;;;;;;;6.73;6.10;;;11.20;99.90;;;;;;4814629;29;20972;-82
2021/03/27 00:45:14;;;;;;;5.70;5.20;;;11.30;99.90;;;;;;4815012;29;20469;-80
2021/03/27 00:47:45;;;;;;;6.20;5.60;;;11.20;99.90;;;;;;4815031;29;20486;-82
2021/03/27 00:50:15;;;;;;;6.57;5.60;;;11.20;99.90;;;;;;4815508;29;20462;-82
2021/03/27 00:52:46;;;;;;;6.77;5.70;;;11.20;99.90;;;;;;4815580;29;20470;-80
2021/03/27 00:55:18;;;;;;;6.73;5.80;;;11.20;99.90;;;;;;4814946;29;20469;-81
2021/03/27 00:57:54;;;;;;;5.47;4.93;;;11.10;99.90;;;;;;4814118;29;20490;-79
2021/03/27 01:00:30;;;;;;;5.37;4.97;;;11.00;99.90;;;;;;4812935;29;20457;-79
2021/03/27 01:03:06;;;;;;;5.20;4.80;;;11.00;99.90;;;;;;4811692;29;20460;-80
2021/03/27 01:05:33;;;;;;;5.83;5.23;;;11.00;99.90;;;;;;4812272;29;20503;-80
2021/03/27 01:08:02;;;;;;;5.17;4.37;;;10.90;99.90;;;;;;4812713;29;20936;-80
2021/03/27 01:10:34;;;;;;;5.97;5.47;;;10.90;99.90;;;;;;4812518;29;20469;-81
2021/03/27 01:13:04;;;;;;;6.47;5.77;;;10.80;99.90;;;;;;4812841;29;20513;-77
2021/03/27 01:15:35;;;;;;;5.23;4.83;;;10.80;99.90;;;;;;4812081;29;20498;-81
2021/03/27 01:18:06;;;;;;;6.60;6.00;;;10.80;99.90;;;;;;4813947;29;20513;-79
2021/03/27 01:20:36;;;;;;;6.03;5.45;;;10.80;99.90;;;;;;4814963;29;20451;-80
2021/03/27 01:23:04;;;;;;;6.18;5.57;;;10.70;99.90;;;;;;4814742;29;20302;-80
2021/03/27 01:25:34;;;;;;;5.37;4.83;;;10.60;99.90;;;;;;4813008;29;20236;-78
2021/03/27 01:28:03;;;;;;;6.87;5.20;;;10.70;99.90;;;;;;4805024;29;20546;-81
2021/03/27 01:30:36;;;;;;;6.13;5.53;;;10.60;99.90;;;;;;4811864;29;20501;-80
2021/03/27 01:33:11;;;;;;;5.60;5.10;;;10.60;99.90;;;;;;4812284;29;20450;-79
2021/03/27 01:35:43;;;;;;;6.00;5.40;;;10.60;99.90;;;;;;4811743;29;20468;-78
2021/03/27 01:38:13;;;;;;;5.10;4.70;;;10.60;99.90;;;;;;4811667;29;20465;-81
2021/03/27 01:40:53;;;;;;;6.13;5.63;;;10.70;99.90;;;;;;4811698;29;20454;-81
2021/03/27 01:43:26;;;;;;;7.90;5.17;;;10.80;99.90;;;;;;4811234;29;20833;-79
2021/03/27 01:46:38;;;;;;;5.43;4.90;;;10.70;99.90;;;;;;4811327;29;21000;-80
2021/03/27 01:49:26;;;;;;;5.80;5.30;;;10.70;99.90;;;;;;4829491;29;21039;-80
2021/03/27 01:52:15;;;;;;;6.50;5.90;;;10.70;99.90;;;;;;4818181;29;20479;-80
2021/03/27 01:54:48;;;;;;;7.03;6.37;;;10.50;99.90;;;;;;4817163;29;20454;-81
2021/03/27 01:57:22;;;;;;;5.20;4.70;;;10.60;99.90;;;;;;4818548;29;20503;-80
2021/03/27 01:59:53;;;;;;;6.23;5.70;;;10.50;99.90;;;;;;4818599;29;20465;-79
2021/03/27 02:02:25;;;;;;;7.30;6.50;;;10.50;99.90;;;;;;4818469;29;20469;-80
2021/03/27 02:04:59;;;;;;;5.53;5.03;;;10.30;99.90;;;;;;4818789;29;20458;-78
2021/03/27 02:07:31;;;;;;;6.13;5.63;;;10.20;99.90;;;;;;4818878;29;20505;-80
2021/03/27 02:10:08;;;;;;;8.50;6.33;;;10.20;99.90;;;;;;4809199;29;20464;-78
2021/03/27 02:12:49;;;;;;;10.60;6.93;;;10.10;99.90;;;;;;4809155;29;20487;-79
2021/03/27 02:15:21;;;;;;;7.87;7.10;;;10.00;99.90;;;;;;4810983;29;20459;-78
2021/03/27 02:17:51;;;;;;;6.20;5.60;;;10.00;99.90;;;;;;4810792;29;20494;-80
2021/03/27 02:20:53;;;;;;;6.90;6.27;;;10.10;99.90;;;;;;4812960;29;20465;-79
2021/03/27 02:23:29;;;;;;;7.67;6.93;;;10.00;99.90;;;;;;4811464;29;20469;-79
2021/03/27 02:26:20;;;;;;;6.93;5.80;;;10.00;99.90;;;;;;4814430;29;20561;-79
2021/03/27 02:29:26;;;;;;;8.73;6.50;;;9.90;99.90;;;;;;4813047;29;20537;-79
2021/03/27 02:31:59;;;;;;;7.00;6.00;;;9.90;99.90;;;;;;4813664;29;20480;-79
2021/03/27 02:34:35;;;;;;;8.30;7.50;;;9.70;99.90;;;;;;4818022;29;20809;-79
2021/03/27 02:37:05;;;;;;;6.63;5.97;;;9.70;99.90;;;;;;4818281;29;20484;-78
2021/03/27 02:39:42;;;;;;;7.93;7.00;;;9.70;99.90;;;;;;4818115;29;20521;-79
2021/03/27 02:42:21;;;;;;;8.77;6.80;;;9.60;99.90;;;;;;4817895;29;20216;-79
2021/03/27 02:44:52;;;;;;;7.43;6.20;;;9.60;99.90;;;;;;4818587;29;20473;-79
2021/03/27 02:47:47;;;;;;;7.85;7.15;;;9.50;99.90;;;;;;4816693;29;20504;-79
2021/03/27 02:50:33;;;;;;;7.67;6.20;;;9.50;99.90;;;;;;4794930;29;20223;-79
2021/03/27 02:53:05;;;;;;;7.57;6.80;;;9.60;99.90;;;;;;4814343;29;20462;-79
2021/03/27 02:55:37;;;;;;;9.10;7.70;;;9.50;99.90;;;;;;4814987;29;20521;-79
2021/03/27 02:58:23;;;;;;;9.77;7.45;;;9.50;99.90;;;;;;4815252;29;20239;-79
2021/03/27 03:01:00;;;;;;;6.27;5.50;;;9.40;99.90;;;;;;4816525;29;20218;-79
2021/03/27 03:03:41;;;;;;;7.05;6.35;;;9.40;99.90;;;;;;4815477;29;20461;-79
2021/03/27 03:06:17;;;;;;;7.30;6.55;;;9.40;99.90;;;;;;4816367;29;20272;-80
2021/03/27 03:08:51;;;;;;;6.53;5.95;;;9.30;99.90;;;;;;4817223;29;20234;-79
2021/03/27 03:11:23;;;;;;;5.47;5.07;;;9.30;99.90;;;;;;4815413;29;20218;-79
2021/03/27 03:13:56;;;;;;;7.00;6.30;;;9.30;99.90;;;;;;4815836;29;20992;-79
2021/03/27 03:16:30;;;;;;;7.80;6.93;;;9.30;99.90;;;;;;4815917;29;20478;-79
2021/03/27 03:19:03;;;;;;;6.57;5.97;;;9.40;99.90;;;;;;4815991;29;20551;-79
2021/03/27 03:21:35;;;;;;;6.00;5.40;;;9.40;99.90;;;;;;4815528;29;20461;-80
2021/03/27 03:24:16;;;;;;;5.70;5.20;;;9.40;99.90;;;;;;4816987;29;20469;-80
2021/03/27 03:27:05;;;;;;;7.85;7.15;;;9.40;99.90;;;;;;4816188;29;20540;-80
2021/03/27 03:29:40;;;;;;;5.97;5.17;;;9.40;99.90;;;;;;4816270;29;20216;-79
2021/03/27 03:32:19;;;;;;;6.15;4.95;;;9.40;99.90;;;;;;4815661;29;20460;-80
2021/03/27 03:35:08;;;;;;;4.85;4.45;;;9.30;99.90;;;;;;4816116;29;20683;-80
2021/03/27 03:37:56;;;;;;;4.30;4.00;;;9.40;99.90;;;;;;4816290;29;20231;-80
2021/03/27 03:40:32;;;;;;;6.00;4.50;;;9.40;99.90;;;;;;4816205;29;20464;-80
2021/03/27 03:43:14;;;;;;;4.53;4.20;;;9.40;99.90;;;;;;4816548;29;20460;-82
2021/03/27 03:45:52;;;;;;;4.23;3.83;;;9.40;99.90;;;;;;4817856;29;20246;-79
2021/03/27 03:48:41;;;;;;;3.80;3.50;;;9.40;99.90;;;;;;4817977;29;21023;-81
2021/03/27 03:51:17;;;;;;;3.90;3.10;;;9.20;99.90;;;;;;4820347;29;20226;-83
2021/03/27 03:53:54;;;;;;;3.40;3.20;;;9.00;99.90;;;;;;4819594;29;20219;-81
2021/03/27 03:56:33;;;;;;;1.58;1.45;;;8.80;99.90;;;;;;4818765;29;20232;-81
2021/03/27 03:59:21;;;;;;;1.70;1.60;;;8.50;99.90;;;;;;4818654;29;20214;-80
2021/03/27 04:01:54;;;;;;;1.30;1.30;;;8.30;99.90;;;;;;4818599;29;20277;-81
2021/03/27 04:04:23;;;;;;;1.02;1.00;;;7.90;99.90;;;;;;4817313;29;20215;-81
2021/03/27 04:06:56;;;;;;;1.50;0.90;;;7.80;99.90;;;;;;4817149;29;20242;-82
2021/03/27 04:09:28;;;;;;;0.98;0.88;;;7.60;99.90;;;;;;4816932;29;20247;-83
2021/03/27 04:12:04;;;;;;;1.67;1.52;;;7.50;99.90;;;;;;4819142;29;20218;-81
2021/03/27 04:14:51;;;;;;;0.73;0.73;;;7.30;99.90;;;;;;4819505;29;20235;-80
2021/03/27 04:17:23;;;;;;;1.05;1.00;;;7.20;99.90;;;;;;4811806;29;20809;-81
2021/03/27 04:19:56;;;;;;;1.27;0.80;;;7.10;99.90;;;;;;4817283;29;20215;-81
2021/03/27 04:22:32;;;;;;;1.80;1.00;;;7.00;99.90;;;;;;4815927;29;20218;-82
2021/03/27 04:25:11;;;;;;;1.15;1.05;;;6.90;99.90;;;;;;4816428;29;20222;-82
2021/03/27 04:27:43;;;;;;;1.50;0.80;;;6.90;99.90;;;;;;4815049;29;20244;-82
2021/03/27 04:30:20;;;;;;;1.02;0.90;;;6.90;99.90;;;;;;4815454;29;20226;-82
2021/03/27 04:32:57;;;;;;;1.65;0.90;;;6.80;99.90;;;;;;4815085;29;20218;-80
2021/03/27 04:35:43;;;;;;;1.10;1.00;;;6.80;99.90;;;;;;4815788;29;20210;-81
2021/03/27 04:38:17;;;;;;;1.60;1.05;;;6.80;99.90;;;;;;4816383;29;20727;-81
2021/03/27 04:40:49;;;;;;;0.90;0.90;;;6.80;99.90;;;;;;4815834;29;20214;-81
2021/03/27 04:43:21;;;;;;;1.13;0.82;;;6.70;99.90;;;;;;4815589;29;20202;-83
2021/03/27 04:45:51;;;;;;;1.27;1.17;;;6.70;99.90;;;;;;4815576;29;20218;-82
2021/03/27 04:48:28;;;;;;;0.85;0.80;;;6.70;99.90;;;;;;4815359;29;20222;-82
2021/03/27 04:51:28;;;;;;;1.77;1.30;;;6.80;99.90;;;;;;4816016;29;20229;-82
2021/03/27 04:54:04;;;;;;;0.65;0.65;;;6.80;99.90;;;;;;4815816;29;20218;-81
2021/03/27 04:56:35;;;;;;;3.08;0.80;;;6.70;99.90;;;;;;4814588;29;20230;-82
2021/03/27 04:59:09;;;;;;;1.55;1.45;;;6.60;99.90;;;;;;4814876;29;20687;-81
2021/03/27 05:01:46;;;;;;;1.20;1.10;;;6.50;99.90;;;;;;4814499;29;20244;-81
2021/03/27 05:04:16;;;;;;;0.93;0.93;;;6.50;99.90;;;;;;4815025;29;20232;-81
2021/03/27 05:06:46;;;;;;;0.70;0.70;;;6.30;99.90;;;;;;4814576;29;20243;-82
2021/03/27 05:09:36;;;;;;;0.70;0.70;;;6.20;99.90;;;;;;4814639;29;20211;-81
2021/03/27 05:12:08;;;;;;;2.75;0.80;;;6.20;99.90;;;;;;4815183;29;20682;-80
2021/03/27 05:14:59;;;;;;;1.40;1.30;;;6.20;99.90;;;;;;4814645;29;20215;-80
2021/03/27 05:17:47;;;;;;;1.02;0.80;;;6.20;99.90;;;;;;4812503;29;20704;-79
2021/03/27 05:20:18;;;;;;;0.85;0.82;;;6.10;99.90;;;;;;4818818;29;20214;-80
2021/03/27 05:22:52;;;;;;;1.63;1.13;;;6.00;99.90;;;;;;4816864;29;20202;-80
2021/03/27 05:25:32;;;;;;;1.20;1.10;;;6.10;99.90;;;;;;4816929;29;20218;-81
2021/03/27 05:28:24;;;;;;;1.10;1.00;;;6.10;99.90;;;;;;4816704;29;20235;-81
2021/03/27 05:31:03;;;;;;;1.33;1.23;;;6.20;99.90;;;;;;4816468;29;20222;-81
2021/03/27 05:33:41;;;;;;;1.15;1.15;;;6.20;99.90;;;;;;4816473;29;20214;-80
2021/03/27 05:36:31;;;;;;;1.20;1.10;;;6.20;99.90;;;;;;4816985;29;20227;-81
2021/03/27 05:39:05;;;;;;;1.67;1.23;;;6.30;99.90;;;;;;4816964;29;20218;-81
2021/03/27 05:41:57;;;;;;;0.75;0.75;;;6.20;99.90;;;;;;4817128;29;20213;-80
2021/03/27 05:45:11;;;;;;;1.10;0.68;;;6.20;99.90;;;;;;4817010;29;20224;-81
2021/03/27 05:48:25;;;;;;;1.40;0.57;;;6.10;99.90;;;;;;4816774;29;20272;-81
2021/03/27 05:51:31;;;;;;;0.38;0.38;;;5.90;99.90;;;;;;4817626;29;20198;-82
2021/03/27 05:54:15;;;;;;;0.95;0.80;;;5.80;99.90;;;;;;4817397;29;20701;-81
2021/03/27 05:57:25;;;;;;;0.65;0.65;;;5.80;99.90;;;;;;4817256;29;20226;-81
2021/03/27 06:00:33;;;;;;;0.52;0.52;;;5.70;99.90;;;;;;4817454;29;20275;-81
2021/03/27 06:03:18;;;;;;;0.50;0.50;;;5.60;99.90;;;;;;4816974;29;20566;-80
2021/03/27 06:06:17;;;;;;;1.38;0.77;;;5.70;99.90;;;;;;4818274;29;20214;-80
2021/03/27 06:08:56;;;;;;;0.60;0.60;;;5.70;99.90;;;;;;4813201;29;20211;-80
2021/03/27 06:11:43;;;;;;;0.60;0.60;;;5.70;99.90;;;;;;4816755;29;20253;-80
2021/03/27 06:14:48;;;;;;;0.75;0.75;;;5.80;99.90;;;;;;4815909;29;20210;-81
2021/03/27 06:17:47;;;;;;;1.70;1.20;;;5.90;99.90;;;;;;4761232;30;20243;-80
2021/03/27 06:20:31;;;;;;;0.60;0.60;;;5.80;99.90;;;;;;4816063;29;20294;-81
2021/03/27 06:23:28;;;;;;;1.20;1.17;;;5.80;99.90;;;;;;4816808;29;20209;-82
2021/03/27 06:26:10;;;;;;;1.83;1.00;;;5.80;99.90;;;;;;4816302;29;20242;-81
2021/03/27 06:29:07;;;;;;;1.20;1.15;;;5.90;99.90;;;;;;4816740;29;20222;-79
2021/03/27 06:32:07;;;;;;;1.10;1.10;;;5.70;99.90;;;;;;4816555;29;20228;-80
2021/03/27 06:34:47;;;;;;;2.55;1.00;;;5.80;99.90;;;;;;4816845;29;20199;-80
2021/03/27 06:37:41;;;;;;;0.95;0.95;;;5.80;99.90;;;;;;4817855;29;20231;-81
2021/03/27 06:40:41;;;;;;;0.88;0.88;;;5.80;99.90;;;;;;4818617;29;20221;-79
2021/03/27 06:43:33;;;;;;;0.73;0.70;;;5.70;99.90;;;;;;4817650;29;20218;-80
2021/03/27 06:46:33;;;;;;;1.15;1.05;;;5.70;99.90;;;;;;4817238;29;20244;-82
2021/03/27 06:49:34;;;;;;;1.58;1.40;;;5.70;99.90;;;;;;4812509;29;20247;-81
2021/03/27 06:52:38;;;;;;;1.27;1.17;;;5.70;99.90;;;;;;4816596;29;20221;-80
2021/03/27 06:55:32;;;;;;;0.90;0.90;;;5.80;99.90;;;;;;4816646;29;20596;-81
2021/03/27 06:58:38;;;;;;;3.40;1.70;;;5.80;99.90;;;;;;4814185;29;20652;-82
2021/03/27 07:01:49;;;;;;;1.15;1.13;;;5.80;99.90;;;;;;4812968;29;20214;-83
2021/03/27 07:04:52;;;;;;;1.63;0.90;;;5.90;99.90;;;;;;4819384;29;20586;-83
2021/03/27 07:07:44;;;;;;;1.20;0.95;;;5.90;99.90;;;;;;4818243;29;20237;-81
2021/03/27 07:10:49;;;;;;;1.10;0.82;;;5.90;99.90;;;;;;4818135;29;20222;-81
2021/03/27 07:13:40;;;;;;;0.98;0.88;;;5.90;99.90;;;;;;4769122;29;20214;-83
2021/03/27 07:16:30;;;;;;;0.90;0.90;;;5.90;99.90;;;;;;4813215;29;20234;-83
2021/03/27 07:19:47;;;;;;;0.60;0.60;;;5.90;99.90;;;;;;4813358;29;20214;-82
2021/03/27 07:22:39;;;;;;;1.02;0.93;;;6.10;99.90;;;;;;4813318;29;20245;-83
2021/03/27 07:25:33;;;;;;;0.73;0.60;;;6.10;99.90;;;;;;4814016;29;20214;-83
2021/03/27 07:28:29;;;;;;;0.60;0.60;;;6.10;99.90;;;;;;4813712;29;20226;-83
2021/03/27 07:31:35;;;;;;;2.25;1.17;;;6.10;99.90;;;;;;4813846;29;20228;-83
2021/03/27 07:34:28;;;;;;;2.45;1.00;;;6.20;99.90;;;;;;4813134;29;20214;-80
2021/03/27 07:37:31;;;;;;;1.42;1.33;;;6.30;99.90;;;;;;4811665;29;20235;-84
2021/03/27 07:40:29;;;;;;;0.80;0.80;;;6.20;99.90;;;;;;4804932;29;20218;-84
2021/03/27 07:43:30;;;;;;;1.77;1.60;;;6.10;99.90;;;;;;4814238;29;20224;-83
2021/03/27 07:46:44;;;;;;;1.35;1.25;;;6.10;99.90;;;;;;4814198;29;20229;-83
2021/03/27 07:49:38;;;;;;;0.75;0.75;;;6.10;99.90;;;;;;4813861;29;20215;-83
2021/03/27 07:52:18;;;;;;;0.90;0.90;;;6.30;99.90;;;;;;4805148;29;20293;-84
2021/03/27 07:55:20;;;;;;;2.80;1.10;;;6.30;99.90;;;;;;4813967;29;20214;-83
2021/03/27 07:58:01;;;;;;;0.70;0.65;;;6.40;99.90;;;;;;4811202;29;20240;-83
2021/03/27 08:01:01;;;;;;;0.80;0.73;;;6.50;99.90;;;;;;4815038;29;20701;-83
2021/03/27 08:03:52;;;;;;;0.82;0.80;;;6.50;99.90;;;;;;4803408;29;20218;-81
2021/03/27 08:06:31;;;;;;;2.58;0.95;;;6.70;99.90;;;;;;4813201;29;20244;-83
2021/03/27 08:09:18;;;;;;;1.02;0.55;;;7.00;99.90;;;;;;4814001;29;20673;-84
2021/03/27 08:12:22;;;;;;;1.10;1.00;;;7.30;99.90;;;;;;4813956;29;20237;-84
2021/03/27 08:15:10;;;;;;;3.55;1.75;;;7.50;99.90;;;;;;4757792;30;20293;-84
2021/03/27 08:17:52;;;;;;;1.60;0.88;;;7.80;99.90;;;;;;4756834;30;20239;-83
2021/03/27 08:20:44;;;;;;;1.42;0.75;;;7.90;99.90;;;;;;4798192;29;20218;-84
2021/03/27 08:23:33;;;;;;;0.90;0.90;;;7.90;99.30;;;;;;4813779;29;20219;-84
2021/03/27 08:26:44;;;;;;;1.40;1.13;;;7.90;99.90;;;;;;4813635;29;20245;-84
2021/03/27 08:29:46;;;;;;;1.30;1.00;;;8.00;99.90;;;;;;4799467;29;20210;-81
2021/03/27 08:32:37;;;;;;;0.65;0.65;;;8.10;99.90;;;;;;4812590;29;20222;-83
2021/03/27 08:35:36;;;;;;;0.52;0.50;;;8.00;99.80;;;;;;4812389;29;20240;-84
2021/03/27 08:38:31;;;;;;;0.73;0.70;;;8.20;97.30;;;;;;4812778;29;20287;-84
2021/03/27 08:41:20;;;;;;;2.80;0.80;;;8.40;97.00;;;;;;4806251;29;20215;-83
2021/03/27 08:44:12;;;;;;;2.80;0.73;;;8.40;95.70;;;;;;4812454;29;20218;-82
2021/03/27 08:46:53;;;;;;;0.77;0.70;;;8.40;93.70;;;;;;4804987;29;20273;-82
2021/03/27 08:49:58;;;;;;;3.83;0.73;;;8.50;92.50;;;;;;4812501;29;20276;-85
2021/03/27 08:52:44;;;;;;;1.50;0.60;;;8.60;92.70;;;;;;4812910;29;20600;-84
2021/03/27 08:55:37;;;;;;;0.98;0.73;;;8.50;91.70;;;;;;4816542;29;20894;-85
2021/03/27 08:58:21;;;;;;;2.05;0.90;;;8.40;91.70;;;;;;4816334;29;20233;-84
2021/03/27 09:01:24;;;;;;;0.80;0.63;;;8.30;91.00;;;;;;4815675;29;20210;-82
2021/03/27 09:04:32;;;;;;;1.17;1.00;;;8.20;90.30;;;;;;4815672;29;20217;-83
2021/03/27 09:07:24;;;;;;;1.65;0.60;;;8.10;91.50;;;;;;4822962;29;20249;-84
2021/03/27 09:10:29;;;;;;;0.85;0.75;;;8.10;89.70;;;;;;4821394;29;20206;-84
2021/03/27 09:13:30;;;;;;;1.00;0.90;;;7.90;89.10;;;;;;4821366;29;20243;-84
2021/03/27 09:16:40;;;;;;;0.70;0.70;;;7.90;89.20;;;;;;4816410;29;20198;-83
2021/03/27 09:19:36;;;;;;;2.95;1.08;;;7.90;90.50;;;;;;4818818;29;20275;-83
2021/03/27 09:22:29;;;;;;;1.67;0.60;;;7.90;88.70;;;;;;4828663;29;20246;-84
2021/03/27 09:25:09;;;;;;;0.90;0.90;;;8.00;86.90;;;;;;4818377;29;20215;-83
2021/03/27 09:28:03;;;;;;;1.50;0.70;;;7.90;86.90;;;;;;4819437;29;20234;-83
2021/03/27 09:30:38;;;;;;;0.45;0.45;;;8.00;88.40;;;;;;4822688;29;20287;-81
2021/03/27 09:33:16;;;;;;;2.65;0.75;;;8.20;88.40;;;;;;4822446;29;20210;-83
2021/03/27 09:36:02;;;;;;;1.75;0.60;;;8.40;87.30;;;;;;4816497;29;20214;-84
2021/03/27 09:38:45;;;;;;;0.80;0.75;;;8.70;87.30;;;;;;4814836;29;20302;-85
2021/03/27 09:41:44;;;;;;;0.60;0.50;;;8.90;85.10;;;;;;4814959;29;20215;-82
2021/03/27 09:44:40;;;;;;;0.77;0.77;;;9.10;85.10;;;;;;4815472;29;20706;-85
2021/03/27 09:47:38;;;;;;;0.98;0.60;;;9.20;83.70;;;;;;4815818;29;20261;-84
2021/03/27 09:50:19;;;;;;;1.00;0.47;;;9.20;81.40;;;;;;4814453;29;20242;-83
2021/03/27 09:53:02;;;;;;;0.65;0.50;;;9.10;80.50;;;;;;4814436;29;20215;-83
2021/03/27 09:55:50;;;;;;;0.60;0.60;;;9.30;81.90;;;;;;4814749;29;20301;-83
2021/03/27 09:58:55;;;;;;;0.52;0.52;;;9.40;78.60;;;;;;4814414;29;20229;-83
2021/03/27 10:01:32;;;;;;;0.70;0.70;;;9.60;78.90;;;;;;4808474;29;20212;-82
2021/03/27 10:04:19;;;;;;;0.90;0.70;;;9.90;79.50;;;;;;4814576;29;20468;-81
2021/03/27 10:07:18;;;;;;;0.40;0.40;;;10.10;79.40;;;;;;4814492;29;20509;-82
2021/03/27 10:09:57;;;;;;;2.90;1.50;;;10.40;76.90;;;;;;4805372;29;21018;-80
2021/03/27 10:12:28;;;;;;;1.00;0.70;;;10.50;74.90;;;;;;4816363;29;20462;-83
2021/03/27 10:14:57;;;;;;;1.13;0.70;;;10.60;74.30;;;;;;4813564;29;20463;-82
2021/03/27 10:17:31;;;;;;;0.60;0.50;;;10.70;74.20;;;;;;4813148;29;20486;-82
2021/03/27 10:20:11;;;;;;;1.87;1.00;;;10.50;71.50;;;;;;4813859;29;20937;-82
2021/03/27 10:22:45;;;;;;;0.60;0.60;;;10.50;73.70;;;;;;4813387;29;20466;-83
2021/03/27 10:25:22;;;;;;;2.35;0.90;;;10.60;73.00;;;;;;4815253;29;20463;-83
2021/03/27 10:27:53;;;;;;;1.57;0.63;;;10.60;71.80;;;;;;4815881;29;20235;-83
2021/03/27 10:30:26;;;;;;;2.28;0.63;;;10.50;70.30;;;;;;4815763;29;20493;-84
2021/03/27 10:33:12;;;;;;;0.93;0.93;;;10.00;68.50;;;;;;4815049;29;20303;-80
2021/03/27 10:36:05;;;;;;;1.15;0.77;;;9.50;71.10;;;;;;4813275;29;20698;-81
2021/03/27 10:38:47;;;;;;;1.08;0.77;;;9.30;72.70;;;;;;4812976;29;20209;-80
2021/03/27 10:41:22;;;;;;;0.63;0.63;;;9.20;70.50;;;;;;4813813;29;20223;-84
2021/03/27 10:44:00;;;;;;;0.98;0.75;;;8.90;70.80;;;;;;4814532;29;20250;-84
2021/03/27 10:46:35;;;;;;;0.65;0.60;;;8.90;71.50;;;;;;4813399;29;20239;-85
2021/03/27 10:49:11;;;;;;;2.15;0.80;;;9.10;73.00;;;;;;4813578;29;20634;-83
2021/03/27 10:52:09;;;;;;;0.87;0.57;;;9.20;70.70;;;;;;4813596;29;20239;-84
2021/03/27 10:55:11;;;;;;;0.50;0.50;;;9.20;69.80;;;;;;4813907;29;20448;-85
2021/03/27 10:58:19;;;;;;;1.95;1.17;;;9.40;71.10;;;;;;4807687;29;20236;-85
2021/03/27 11:00:58;;;;;;;0.93;0.77;;;9.40;70.70;;;;;;4818653;29;20648;-82
2021/03/27 11:04:01;;;;;;;2.15;2.05;;;9.30;69.60;;;;;;4819887;29;20207;-85
2021/03/27 11:07:12;;;;;;;0.60;0.60;;;9.30;70.90;;;;;;4813621;29;20247;-82
2021/03/27 11:10:15;;;;;;;0.40;0.30;;;9.70;69.30;;;;;;4815553;29;20247;-83
2021/03/27 11:12:58;;;;;;;0.40;0.40;;;10.10;68.30;;;;;;4813919;29;20245;-82
2021/03/27 11:15:45;;;;;;;2.40;1.00;;;10.50;66.70;;;;;;4813417;29;20485;-84
2021/03/27 11:18:28;;;;;;;0.60;0.43;;;10.20;65.10;;;;;;4813995;29;20474;-81
2021/03/27 11:21:08;;;;;;;1.30;0.80;;;10.00;67.10;;;;;;4814237;29;20610;-84
2021/03/27 11:24:13;;;;;;;2.88;1.50;;;10.10;66.30;;;;;;4813191;29;20467;-84
2021/03/27 11:27:07;;;;;;;2.83;1.30;;;10.80;67.60;;;;;;4814035;29;20241;-84
2021/03/27 11:29:41;;;;;;;1.37;0.60;;;11.10;65.00;;;;;;4814643;29;20837;-82
2021/03/27 11:32:16;;;;;;;1.30;1.27;;;11.10;65.00;;;;;;4813358;29;20480;-84
2021/03/27 11:34:52;;;;;;;0.70;0.70;;;11.50;64.90;;;;;;4816371;29;20827;-84
2021/03/27 11:37:41;;;;;;;1.17;0.90;;;11.50;64.30;;;;;;4813223;29;20476;-84
2021/03/27 11:40:21;;;;;;;2.27;0.70;;;11.30;63.30;;;;;;4813326;29;20977;-84
2021/03/27 11:42:59;;;;;;;1.20;0.70;;;11.30;61.10;;;;;;4812758;29;20835;-84
2021/03/27 11:45:31;;;;;;;3.80;1.60;;;11.70;61.70;;;;;;4813156;29;20469;-84
2021/03/27 11:48:02;;;;;;;0.77;0.60;;;11.70;59.60;;;;;;4813159;29;20498;-84
2021/03/27 11:50:47;;;;;;;1.90;1.30;;;11.40;59.30;;;;;;4815562;29;20491;-83
2021/03/27 11:53:24;;;;;;;2.20;0.77;;;11.10;60.50;;;;;;4813305;29;20455;-85
2021/03/27 11:55:58;;;;;;;0.77;0.73;;;10.60;61.00;;;;;;4813337;29;20853;-83
2021/03/27 11:58:34;;;;;;;1.45;1.35;;;10.60;62.50;;;;;;4814517;29;20476;-83
2021/03/27 12:01:04;;;;;;;1.90;0.82;;;10.30;63.10;;;;;;4813361;29;20230;-81
2021/03/27 12:03:47;;;;;;;2.65;0.85;;;10.10;63.90;;;;;;4813930;29;20233;-83
2021/03/27 12:06:32;;;;;;;0.85;0.85;;;9.70;66.60;;;;;;4813201;29;20234;-84
2021/03/27 12:09:09;;;;;;;1.50;0.95;;;9.60;67.60;;;;;;4815297;29;20874;-83
2021/03/27 12:12:08;;;;;;;1.23;0.90;;;9.50;69.00;;;;;;4815538;29;20283;-83
2021/03/27 12:14:45;;;;;;;1.85;1.15;;;9.50;70.00;;;;;;4815578;29;20594;-84
2021/03/27 12:17:21;;;;;;;1.50;0.80;;;9.30;68.70;;;;;;4813516;29;20258;-83
2021/03/27 12:19:56;;;;;;;1.02;1.02;;;9.30;68.60;;;;;;4814387;29;20218;-83
2021/03/27 12:22:29;;;;;;;3.03;1.45;;;9.40;70.00;;;;;;4812825;29;20236;-81
2021/03/27 12:25:21;;;;;;;1.75;1.17;;;9.70;68.70;;;;;;4813387;29;20221;-83
2021/03/27 12:27:57;;;;;;;4.30;1.60;;;9.80;67.50;;;;;;4813659;29;20707;-83
2021/03/27 12:30:35;;;;;;;1.63;0.75;;;9.90;68.60;;;;;;4816502;29;20503;-83
2021/03/27 12:33:08;;;;;;;0.55;0.55;;;9.80;67.60;;;;;;4816922;29;20221;-83
2021/03/27 12:35:38;;;;;;;0.85;0.85;;;9.60;66.20;;;;;;4816769;29;20214;-83
2021/03/27 12:38:19;;;;;;;1.00;0.85;;;9.40;66.90;;;;;;4817299;29;20230;-83
2021/03/27 12:41:01;;;;;;;1.85;0.80;;;9.40;67.90;;;;;;4824232;29;20212;-82
2021/03/27 12:43:30;;;;;;;2.40;1.10;;;9.30;68.30;;;;;;4825266;29;20247;-83
2021/03/27 12:46:18;;;;;;;1.45;0.70;;;9.30;67.60;;;;;;4823791;29;20218;-84
2021/03/27 12:49:06;;;;;;;0.97;0.73;;;9.30;68.30;;;;;;4831749;29;20218;-84
2021/03/27 12:51:47;;;;;;;1.33;0.75;;;9.30;69.10;;;;;;4835415;29;20463;-86
2021/03/27 12:54:36;;;;;;;2.53;0.88;;;9.40;69.10;;;;;;4835236;29;20210;-82
2021/03/27 12:57:35;;;;;;;1.38;0.63;;;9.40;69.20;;;;;;4837443;29;20249;-85
2021/03/27 13:00:33;;;;;;;2.05;1.10;;;9.60;68.60;;;;;;4836753;29;20684;-85
2021/03/27 13:03:11;;;;;;;1.20;0.80;;;9.40;67.60;;;;;;4784137;29;20277;-83
2021/03/27 13:05:46;;;;;;;1.25;0.85;;;9.50;68.20;;;;;;4834938;29;20209;-83
2021/03/27 13:08:20;;;;;;;0.60;0.60;;;9.60;67.30;;;;;;4835479;29;20236;-86
2021/03/27 13:10:54;;;;;;;2.27;0.90;;;10.30;64.70;;;;;;4835720;29;20588;-86
2021/03/27 13:13:54;;;;;;;0.50;0.50;;;10.80;62.10;;;;;;4835688;29;20447;-86
2021/03/27 13:16:29;;;;;;;1.47;1.37;;;11.00;62.00;;;;;;4813668;29;20468;-84
2021/03/27 13:19:04;;;;;;;0.70;0.70;;;11.00;60.60;;;;;;4834060;29;20486;-85
2021/03/27 13:21:39;;;;;;;2.85;1.10;;;10.90;62.40;;;;;;4835660;29;20460;-84
2021/03/27 13:24:14;;;;;;;1.47;1.20;;;10.70;61.90;;;;;;4836892;29;20306;-83
2021/03/27 13:26:42;;;;;;;1.43;0.90;;;10.50;62.10;;;;;;4835880;29;20500;-83
2021/03/27 13:29:32;;;;;;;1.43;1.20;;;10.40;62.00;;;;;;4834238;29;20469;-85
2021/03/27 13:32:15;;;;;;;1.90;1.47;;;10.20;63.20;;;;;;4834098;29;20554;-84
2021/03/27 13:34:45;;;;;;;1.20;1.10;;;10.30;63.50;;;;;;4834234;29;20465;-85
2021/03/27 13:37:13;;;;;;;1.23;1.13;;;10.40;63.30;;;;;;4834166;29;20481;-85
2021/03/27 13:39:42;;;;;;;2.87;1.30;;;10.30;63.60;;;;;;4833129;29;20525;-86
2021/03/27 13:42:32;;;;;;;3.37;2.10;;;10.30;62.60;;;;;;4833055;29;20458;-86
2021/03/27 13:45:25;;;;;;;1.20;0.70;;;10.40;62.20;;;;;;4833444;29;20960;-85
2021/03/27 13:48:02;;;;;;;0.87;0.70;;;10.80;61.50;;;;;;4832657;29;20500;-86
2021/03/27 13:51:07;;;;;;;0.70;0.63;;;10.60;61.10;;;;;;4833154;29;20458;-85
2021/03/27 13:53:43;;;;;;;3.67;1.30;;;10.10;61.70;;;;;;4832403;29;20282;-86
2021/03/27 13:56:25;;;;;;;0.80;0.65;;;10.00;63.10;;;;;;4832090;29;20240;-85
2021/03/27 13:59:11;;;;;;;1.85;0.77;;;9.70;64.80;;;;;;4832837;29;20219;-86
2021/03/27 14:01:42;;;;;;;0.95;0.80;;;9.60;65.60;;;;;;4830006;29;20221;-86
2021/03/27 14:04:16;;;;;;;1.25;0.80;;;9.50;65.80;;;;;;4832707;29;20229;-85
2021/03/27 14:06:52;;;;;;;2.15;1.67;;;9.50;66.60;;;;;;4832513;29;20307;-85
2021/03/27 14:09:32;;;;;;;1.13;0.77;;;9.60;66.80;;;;;;4832681;29;20309;-83
2021/03/27 14:12:03;;;;;;;0.90;0.90;;;10.10;64.40;;;;;;4832219;29;20301;-86
2021/03/27 14:14:34;;;;;;;1.47;1.03;;;10.40;62.60;;;;;;4832299;29;20208;-86
2021/03/27 14:17:12;;;;;;;2.00;1.30;;;10.90;61.40;;;;;;4832309;29;20477;-86